Time;durP1;ratioP1;P1;durP2;ratioP2;P2;SDS_P1;SDS_P2;PMS_P1;PMS_P2;Temp;Humidity;BMP_temperature;BMP_pressure;BME280_temperature;BME280_humidity;BME280_pressure;Samples;Min_cycle;Max_cycle;Signal;HPM_P1;HPM_P2
2022/07/20 00:01:44;;;;;;;12.77;9.63;;;;;;;24.69;41.97;100577.53;5050737;27;97246;-80
2022/07/20 00:04:10;;;;;;;14.18;9.75;;;;;;;24.64;42.28;100585.19;5034644;27;97494;-79
2022/07/20 00:06:35;;;;;;;13.38;9.85;;;;;;;24.52;42.67;100575.50;5037519;27;99896;-80
2022/07/20 00:11:46;;;;;;;11.10;9.25;;;;;;;24.46;42.59;100570.69;5038349;27;97253;-78
2022/07/20 00:14:12;;;;;;;13.77;10.05;;;;;;;24.44;42.63;100588.78;5056788;27;101562;-78
2022/07/20 00:16:37;;;;;;;18.85;9.57;;;;;;;24.49;42.53;100575.78;5017204;27;101093;-80
2022/07/20 00:19:03;;;;;;;15.85;8.93;;;;;;;24.41;42.98;100581.81;5074009;27;96936;-78
2022/07/20 00:21:29;;;;;;;12.55;9.82;;;;;;;24.26;43.14;100565.22;5036567;27;97040;-78
2022/07/20 00:23:55;;;;;;;12.77;9.60;;;;;;;24.27;42.97;100568.75;5007805;27;101498;-78
2022/07/20 00:26:20;;;;;;;14.25;9.23;;;;;;;24.25;43.14;100571.56;5036587;27;97218;-81
2022/07/20 00:28:46;;;;;;;13.45;9.43;;;;;;;24.21;43.08;100569.28;5038514;27;97296;-78
2022/07/20 00:31:11;;;;;;;21.05;10.25;;;;;;;24.21;43.16;100571.97;5033236;27;97031;-78
2022/07/20 00:33:37;;;;;;;10.13;9.02;;;;;;;24.16;43.13;100575.06;5057427;27;97460;-79
2022/07/20 00:36:03;;;;;;;14.60;10.40;;;;;;;24.16;43.11;100575.06;5011916;27;101026;-81
2022/07/20 00:38:29;;;;;;;20.92;9.70;;;;;;;23.97;43.55;100559.72;5035807;27;97309;-80
2022/07/20 00:40:54;;;;;;;15.48;10.15;;;;;;;24.08;43.15;100570.34;5029519;27;96979;-78
2022/07/20 00:43:20;;;;;;;13.90;10.23;;;;;;;24.07;43.43;100565.97;5025653;27;97549;-78
2022/07/20 00:45:45;;;;;;;15.68;9.45;;;;;;;24.12;43.61;100562.91;5005862;27;101252;-78
2022/07/20 00:48:11;;;;;;;16.92;10.00;;;;;;;24.05;43.54;100569.75;5019582;27;96798;-82
2022/07/20 00:50:37;;;;;;;16.85;9.23;;;;;;;24.01;43.76;100573.72;5039544;27;96919;-78
2022/07/20 00:53:03;;;;;;;19.67;9.38;;;;;;;23.86;44.22;100570.53;5037027;27;101229;-78
2022/07/20 00:55:29;;;;;;;11.82;9.23;;;;;;;23.76;44.16;100561.56;5037611;27;101703;-78
2022/07/20 00:57:54;;;;;;;17.77;9.93;;;;;;;23.88;44.15;100573.91;5050077;27;96842;-78
2022/07/20 01:00:20;;;;;;;18.40;9.55;;;;;;;23.92;43.84;100573.50;5025918;27;97381;-78
2022/07/20 01:02:45;;;;;;;13.48;9.88;;;;;;;23.91;44.02;100576.31;5048399;27;99998;-78
2022/07/20 01:05:14;;;;;;;14.85;9.25;;;;;;;23.82;44.15;100582.47;5030032;27;98002;-78
2022/07/20 01:07:48;;;;;;;16.02;9.13;;;;;;;23.72;44.66;100585.09;5016045;27;97318;-78
2022/07/20 01:10:14;;;;;;;16.55;9.75;;;;;;;23.75;44.52;100579.47;5037572;27;97052;-80
2022/07/20 01:12:45;;;;;;;10.43;9.18;;;;;;;23.75;44.43;100582.16;5030405;27;101155;-77
2022/07/20 01:15:10;;;;;;;11.77;9.93;;;;;;;23.72;44.26;100580.56;5026297;27;101510;-78
2022/07/20 01:17:36;;;;;;;10.88;9.48;;;;;;;23.65;44.55;100578.50;5025491;27;97530;-80
2022/07/20 01:20:02;;;;;;;20.52;9.15;;;;;;;23.54;44.63;100565.19;5003922;27;96999;-78
2022/07/20 01:22:27;;;;;;;12.15;9.80;;;;;;;23.56;44.89;100572.13;5032436;27;97955;-80
2022/07/20 01:24:53;;;;;;;17.15;9.43;;;;;;;23.48;45.13;100577.28;5027725;27;97479;-80
2022/07/20 01:27:18;;;;;;;15.63;9.75;;;;;;;23.53;44.68;100566.16;5054761;27;97058;-80
2022/07/20 01:29:44;;;;;;;14.27;9.63;;;;;;;23.53;44.76;100566.16;5034608;27;96947;-80
2022/07/20 01:32:09;;;;;;;19.17;10.25;;;;;;;23.43;45.04;100563.41;5034295;27;101128;-80
2022/07/20 01:34:35;;;;;;;14.18;9.55;;;;;;;23.38;45.19;100565.63;5037729;27;100870;-82
2022/07/20 01:37:00;;;;;;;11.60;10.23;;;;;;;23.26;45.35;100548.75;5047255;27;98441;-80
2022/07/20 01:39:26;;;;;;;14.15;9.85;;;;;;;23.01;45.82;100539.25;5021462;27;97004;-80
2022/07/20 01:41:53;;;;;;;15.32;10.57;;;;;;;23.05;45.97;100556.75;5034031;27;97593;-79
2022/07/20 01:44:21;;;;;;;11.55;9.77;;;;;;;23.08;45.98;100559.19;5040861;27;98459;-80
2022/07/20 01:46:48;;;;;;;11.82;9.18;;;;;;;23.05;46.36;100556.75;5032660;27;97066;-80
2022/07/20 01:49:15;;;;;;;13.98;9.63;;;;;;;23.14;45.96;100558.66;5048262;27;96881;-81
2022/07/20 01:51:40;;;;;;;17.13;11.27;;;;;;;23.19;45.86;100555.63;5031944;27;97478;-81
2022/07/20 01:54:06;;;;;;;14.68;9.25;;;;;;;23.07;46.25;100557.47;5070432;27;97457;-81
2022/07/20 01:56:31;;;;;;;10.45;9.45;;;;;;;23.00;46.30;100550.91;5030807;27;97195;-84
2022/07/20 01:58:56;;;;;;;12.10;10.52;;;;;;;23.07;46.26;100541.41;5033075;27;97394;-79
2022/07/20 02:01:22;;;;;;;14.40;10.07;;;;;;;23.05;46.62;100552.25;5016347;27;101343;-79
2022/07/20 02:03:47;;;;;;;11.98;9.65;;;;;;;23.09;46.73;100560.88;5050865;27;97591;-78
2022/07/20 02:06:13;;;;;;;12.85;9.95;;;;;;;23.07;46.79;100557.47;5016192;27;97158;-78
2022/07/20 02:08:38;;;;;;;13.27;10.23;;;;;;;23.04;46.74;100552.38;5051511;27;97330;-81
2022/07/20 02:11:04;;;;;;;18.45;10.73;;;;;;;22.79;47.15;100532.09;5018172;27;101795;-77
2022/07/20 02:13:29;;;;;;;20.88;10.15;;;;;;;22.90;47.36;100561.50;5039489;27;100967;-79
2022/07/20 02:18:39;;;;;;;15.82;9.20;;;;;;;22.84;47.31;100564.69;5042906;27;97128;-84
2022/07/20 02:21:04;;;;;;;14.18;9.80;;;;;;;22.79;47.46;100556.19;5036211;27;101352;-79
2022/07/20 02:23:30;;;;;;;20.30;10.20;;;;;;;22.64;47.72;100541.38;5020334;27;101217;-79
2022/07/20 02:25:55;;;;;;;14.55;9.98;;;;;;;22.75;47.47;100554.75;5034933;27;96907;-78
2022/07/20 02:28:21;;;;;;;19.15;9.73;;;;;;;22.65;47.64;100551.09;5055611;27;97010;-77
2022/07/20 02:30:46;;;;;;;11.23;9.95;;;;;;;22.77;47.05;100556.28;5022752;27;101289;-77
2022/07/20 02:33:12;;;;;;;13.30;10.10;;;;;;;22.74;47.22;100555.69;5034723;27;101800;-80
2022/07/20 02:35:37;;;;;;;14.93;10.10;;;;;;;22.68;47.38;100551.69;5031552;27;97690;-80
2022/07/20 02:38:03;;;;;;;15.10;10.50;;;;;;;22.69;47.45;100563.25;5022579;27;96896;-81
2022/07/20 02:40:28;;;;;;;15.73;10.52;;;;;;;22.71;47.41;100564.81;5018181;27;101616;-81
2022/07/20 02:42:53;;;;;;;20.70;10.10;;;;;;;22.63;47.71;100551.25;5017036;28;101293;-77
2022/07/20 02:45:19;;;;;;;17.27;10.98;;;;;;;22.62;47.84;100572.75;5001508;28;98334;-80
2022/07/20 02:47:46;;;;;;;19.65;11.05;;;;;;;22.52;47.72;100544.06;5013847;28;97043;-80
2022/07/20 02:50:12;;;;;;;16.52;10.27;;;;;;;22.71;47.66;100572.84;5010317;28;101495;-80
2022/07/20 02:52:38;;;;;;;14.50;10.15;;;;;;;22.59;47.94;100580.03;4988878;28;101363;-78
2022/07/20 02:55:05;;;;;;;12.80;9.52;;;;;;;22.58;47.89;100575.69;5011057;28;96865;-80
2022/07/20 02:57:31;;;;;;;14.10;10.27;;;;;;;22.60;47.43;100578.22;5015839;28;97401;-80
2022/07/20 02:59:56;;;;;;;18.02;11.02;;;;;;;22.55;47.58;100580.44;5008540;28;101425;-80
2022/07/20 03:02:21;;;;;;;12.55;9.88;;;;;;;22.57;47.08;100571.31;4988706;28;101114;-77
2022/07/20 03:04:47;;;;;;;11.80;9.68;;;;;;;22.51;47.38;100562.91;4999014;28;97176;-80
2022/07/20 03:07:12;;;;;;;19.52;10.38;;;;;;;22.38;47.64;100561.22;5002283;28;97009;-80
2022/07/20 03:09:38;;;;;;;15.18;10.05;;;;;;;22.48;47.50;100576.53;4995407;28;101621;-80
2022/07/20 03:12:03;;;;;;;13.82;10.55;;;;;;;22.49;47.76;100575.56;5010322;28;101343;-79
2022/07/20 03:14:29;;;;;;;12.68;10.18;;;;;;;22.45;47.98;100574.09;4998276;28;96995;-80
2022/07/20 03:16:55;;;;;;;16.70;11.07;;;;;;;22.38;48.25;100585.28;5015502;28;96892;-80
2022/07/20 03:19:21;;;;;;;15.35;10.10;;;;;;;22.43;48.31;100581.38;4995921;28;101540;-81
2022/07/20 03:21:47;;;;;;;20.95;10.60;;;;;;;22.42;48.52;100580.53;5009808;28;101336;-77
2022/07/20 03:24:13;;;;;;;12.55;10.45;;;;;;;22.48;48.47;100589.91;4996211;28;96997;-81
2022/07/20 03:26:38;;;;;;;14.13;10.40;;;;;;;22.40;48.58;100576.28;5006110;28;96993;-77
2022/07/20 03:29:04;;;;;;;13.70;9.68;;;;;;;22.35;48.91;100577.50;5010981;28;101059;-79
2022/07/20 03:31:29;;;;;;;15.82;9.93;;;;;;;22.25;48.95;100562.31;5002245;28;101185;-80
2022/07/20 03:33:54;;;;;;;14.05;10.27;;;;;;;22.32;48.86;100571.56;4998688;28;96951;-79
2022/07/20 03:36:20;;;;;;;14.35;10.00;;;;;;;22.21;49.35;100574.22;4993792;28;97120;-80
2022/07/20 03:38:45;;;;;;;13.80;9.68;;;;;;;22.33;49.68;100584.78;5004695;28;100650;-80
2022/07/20 03:41:11;;;;;;;15.32;10.15;;;;;;;22.40;49.20;100590.53;5011920;28;101618;-78
2022/07/20 03:43:36;;;;;;;12.05;10.57;;;;;;;22.40;49.41;100589.66;5018869;27;96984;-80
2022/07/20 03:46:02;;;;;;;15.52;10.80;;;;;;;22.38;49.46;100593.31;4998437;28;96992;-79
2022/07/20 03:48:27;;;;;;;11.63;10.43;;;;;;;22.43;49.58;100603.66;5014007;28;97710;-80
2022/07/20 03:50:53;;;;;;;14.52;10.75;;;;;;;22.26;50.46;100607.66;5009772;28;97675;-79
2022/07/20 03:53:18;;;;;;;12.10;10.77;;;;;;;22.25;50.24;100592.59;4984674;28;96868;-79
2022/07/20 03:55:44;;;;;;;13.68;10.02;;;;;;;22.28;50.30;100611.06;5013341;28;97500;-79
2022/07/20 03:58:09;;;;;;;20.35;11.10;;;;;;;22.15;50.71;100615.63;5024562;28;98485;-77
2022/07/20 04:00:35;;;;;;;18.50;10.98;;;;;;;21.98;51.26;100613.41;5005806;28;97976;-80
2022/07/20 04:03:00;;;;;;;12.48;11.23;;;;;;;21.99;51.39;100607.97;5002144;28;97020;-80
2022/07/20 04:05:25;;;;;;;19.48;11.82;;;;;;;22.04;51.13;100607.59;5006079;28;97072;-77
2022/07/20 04:07:51;;;;;;;15.80;11.93;;;;;;;22.19;51.14;100614.44;4997065;28;101129;-79
2022/07/20 04:10:16;;;;;;;17.35;12.20;;;;;;;22.17;51.09;100604.81;5030428;28;100886;-79
2022/07/20 04:12:42;;;;;;;24.15;11.57;;;;;;;21.90;51.79;100601.50;5005968;28;97706;-78
2022/07/20 04:15:08;;;;;;;12.73;11.48;;;;;;;22.13;51.58;100607.72;5016911;28;97385;-79
2022/07/20 04:17:33;;;;;;;15.48;11.48;;;;;;;22.19;51.60;100608.25;5013425;28;97455;-78
2022/07/20 04:19:59;;;;;;;15.80;11.75;;;;;;;22.25;51.64;100603.28;5014424;28;98456;-78
2022/07/20 04:22:24;;;;;;;13.80;11.50;;;;;;;22.25;51.30;100594.38;5009144;28;97814;-79
2022/07/20 04:24:50;;;;;;;12.10;10.85;;;;;;;22.33;50.79;100606.19;5026809;28;97025;-81
2022/07/20 04:27:15;;;;;;;13.95;11.18;;;;;;;22.50;50.82;100598.66;5013404;28;101401;-77
2022/07/20 04:29:41;;;;;;;19.67;11.70;;;;;;;22.50;50.79;100588.81;5010900;28;101405;-79
2022/07/20 04:32:06;;;;;;;21.38;11.45;;;;;;;22.72;49.82;100597.78;4990066;28;96721;-79
2022/07/20 04:34:32;;;;;;;17.52;11.10;;;;;;;22.64;50.05;100601.09;4993215;28;96988;-79
2022/07/20 04:36:58;;;;;;;20.42;11.88;;;;;;;22.58;49.84;100597.06;4993365;28;101413;-79
2022/07/20 04:39:23;;;;;;;18.75;11.25;;;;;;;22.44;50.39;100591.97;4996700;28;101415;-79
2022/07/20 04:41:49;;;;;;;17.58;10.80;;;;;;;22.72;49.62;100605.81;5035491;27;96911;-81
2022/07/20 04:44:14;;;;;;;18.35;10.98;;;;;;;22.76;49.35;100604.59;5034847;27;96671;-79
2022/07/20 04:46:40;;;;;;;12.23;10.95;;;;;;;22.86;49.19;100589.47;5048392;27;98446;-79
2022/07/20 04:49:07;;;;;;;14.75;11.73;;;;;;;23.23;48.56;100613.28;5020138;27;101356;-79
2022/07/20 04:51:33;;;;;;;19.05;11.30;;;;;;;23.28;48.23;100600.38;5036879;27;96815;-79
2022/07/20 04:53:58;;;;;;;14.43;11.30;;;;;;;23.42;48.33;100610.78;5019821;27;96834;-79
2022/07/20 04:56:24;;;;;;;18.58;11.30;;;;;;;23.58;48.11;100612.16;5017121;27;101471;-79
2022/07/20 04:58:52;;;;;;;13.32;10.90;;;;;;;23.63;47.67;100610.81;5037422;27;98046;-81
2022/07/20 05:01:22;;;;;;;16.88;10.80;;;;;;;23.65;47.48;100590.09;5035769;27;96895;-79
2022/07/20 05:03:47;;;;;;;15.13;10.65;;;;;;;23.90;47.60;100618.34;5035293;27;97207;-79
2022/07/20 05:06:13;;;;;;;15.05;10.77;;;;;;;24.05;47.49;100616.19;5010327;27;101538;-79
2022/07/20 05:08:38;;;;;;;17.67;10.98;;;;;;;24.26;47.18;100613.50;5049954;27;98012;-78
2022/07/20 05:11:04;;;;;;;17.92;11.02;;;;;;;24.33;47.09;100611.97;5019943;27;97306;-79
2022/07/20 05:13:29;;;;;;;18.48;11.93;;;;;;;24.31;46.66;100599.69;5011889;27;98058;-79
2022/07/20 05:15:55;;;;;;;20.40;11.73;;;;;;;24.38;46.81;100616.94;5044601;27;101519;-79
2022/07/20 05:18:20;;;;;;;17.33;11.50;;;;;;;24.41;46.69;100595.22;5039654;27;101557;-79
2022/07/20 05:20:46;;;;;;;18.60;11.75;;;;;;;24.58;46.51;100613.41;5032305;27;97485;-79
2022/07/20 05:23:11;;;;;;;11.40;10.20;;;;;;;24.67;46.13;100619.78;5021241;27;97230;-79
2022/07/20 05:25:39;;;;;;;11.30;10.23;;;;;;;24.76;45.71;100607.38;5012994;27;101790;-79
2022/07/20 05:28:05;;;;;;;18.08;11.70;;;;;;;24.53;45.64;100621.00;5042245;27;101622;-81
2022/07/20 05:30:31;;;;;;;17.45;11.45;;;;;;;24.66;45.94;100625.28;5036137;27;96933;-78
2022/07/20 05:32:56;;;;;;;15.32;11.32;;;;;;;24.87;45.41;100615.34;5036365;27;97301;-79
2022/07/20 05:35:22;;;;;;;17.75;11.82;;;;;;;24.94;45.12;100621.84;5034357;27;101624;-78
2022/07/20 05:37:47;;;;;;;15.90;11.68;;;;;;;25.26;44.39;100623.47;5041644;27;101421;-79
2022/07/20 05:40:13;;;;;;;16.45;11.20;;;;;;;25.29;44.44;100615.97;5054198;27;96828;-79
2022/07/20 05:42:38;;;;;;;12.73;10.65;;;;;;;25.88;43.69;100613.31;5061513;27;97165;-79
2022/07/20 05:45:04;;;;;;;20.33;12.30;;;;;;;26.17;43.16;100615.94;5037350;27;98738;-80
2022/07/20 05:47:30;;;;;;;14.77;11.00;;;;;;;26.50;42.41;100602.94;5050452;27;97565;-79
2022/07/20 05:49:57;;;;;;;12.63;11.27;;;;;;;26.81;41.92;100609.72;5015895;27;97131;-81
2022/07/20 05:52:23;;;;;;;13.00;11.35;;;;;;;27.21;41.17;100597.75;5044894;27;97161;-79
2022/07/20 05:54:48;;;;;;;14.77;11.85;;;;;;;27.94;40.25;100611.03;5053331;27;100855;-80
2022/07/20 05:57:14;;;;;;;15.32;11.18;;;;;;;28.63;39.15;100613.81;5036468;27;97943;-80
2022/07/20 05:59:40;;;;;;;12.52;10.85;;;;;;;29.38;37.87;100613.88;5025235;27;96790;-80
2022/07/20 06:02:05;;;;;;;13.50;10.95;;;;;;;29.91;37.26;100607.13;5021638;27;97203;-81
2022/07/20 06:04:31;;;;;;;11.18;10.27;;;;;;;30.52;35.62;100618.34;5021284;27;101707;-80
2022/07/20 06:06:56;;;;;;;13.68;12.15;;;;;;;31.12;35.38;100612.31;5032056;27;101491;-81
2022/07/20 06:09:22;;;;;;;17.63;11.80;;;;;;;31.61;34.20;100616.56;5037670;27;97136;-80
2022/07/20 06:11:47;;;;;;;15.65;11.43;;;;;;;31.63;33.86;100611.81;5035852;27;96817;-79
2022/07/20 06:14:13;;;;;;;20.00;11.90;;;;;;;32.22;33.20;100624.66;5037624;27;98282;-80
2022/07/20 06:16:38;;;;;;;17.58;11.52;;;;;;;32.22;33.22;100625.50;5032660;27;101115;-80
2022/07/20 06:19:04;;;;;;;15.65;10.85;;;;;;;32.76;32.73;100621.69;5045261;27;96759;-81
2022/07/20 06:21:29;;;;;;;13.30;11.82;;;;;;;33.42;31.89;100621.59;5048493;27;96955;-81
2022/07/20 06:23:55;;;;;;;14.77;11.00;;;;;;;33.43;31.67;100626.03;5032316;27;99830;-83
2022/07/20 06:26:23;;;;;;;13.00;11.15;;;;;;;34.06;30.80;100628.06;5049917;27;100861;-81
2022/07/20 06:28:49;;;;;;;15.10;10.90;;;;;;;34.29;30.65;100628.63;5030435;27;96744;-79
2022/07/20 06:31:14;;;;;;;12.48;11.18;;;;;;;34.72;30.32;100623.03;5018989;27;96966;-80
2022/07/20 06:33:40;;;;;;;16.48;11.30;;;;;;;35.05;29.17;100619.59;5024574;27;101600;-83
2022/07/20 06:36:05;;;;;;;13.88;10.63;;;;;;;35.71;28.41;100619.72;5028421;27;99837;-85
2022/07/20 06:38:33;;;;;;;16.35;11.05;;;;;;;36.30;28.34;100615.25;5036520;27;97188;-84
2022/07/20 06:40:59;;;;;;;12.68;11.38;;;;;;;37.08;27.07;100622.59;5018385;27;97318;-84
2022/07/20 06:43:24;;;;;;;19.00;10.80;;;;;;;37.22;26.98;100632.38;5037595;27;101492;-84
2022/07/20 06:45:50;;;;;;;19.38;11.50;;;;;;;37.82;26.07;100618.28;5035915;27;97653;-83
2022/07/20 06:48:16;;;;;;;13.50;11.30;;;;;;;37.83;26.04;100618.06;5019111;27;96762;-86
2022/07/20 06:50:41;;;;;;;15.75;11.75;;;;;;;38.34;26.00;100621.59;5047583;27;97295;-83
2022/07/20 06:53:07;;;;;;;14.98;11.95;;;;;;;38.53;25.28;100619.69;5055267;27;97702;-83
2022/07/20 06:55:32;;;;;;;12.55;10.73;;;;;;;39.11;24.99;100619.16;5021611;27;100699;-83
2022/07/20 06:57:58;;;;;;;12.10;10.82;;;;;;;39.06;24.96;100623.69;5034049;27;96876;-84
2022/07/20 07:00:24;;;;;;;12.63;10.68;;;;;;;39.05;24.60;100619.28;5019949;27;97948;-83
2022/07/20 07:02:49;;;;;;;16.52;10.88;;;;;;;39.34;24.35;100612.13;5032742;27;101610;-83
2022/07/20 07:05:15;;;;;;;15.30;11.30;;;;;;;39.30;24.51;100621.88;5048737;27;98108;-83
2022/07/20 07:07:40;;;;;;;19.20;11.20;;;;;;;39.53;24.31;100624.66;5055999;27;97266;-82
2022/07/20 07:10:06;;;;;;;12.73;11.20;;;;;;;39.83;23.63;100613.66;5036134;27;97006;-84
2022/07/20 07:12:32;;;;;;;12.90;11.30;;;;;;;40.14;23.64;100619.00;5022438;27;101047;-90
2022/07/20 07:14:57;;;;;;;13.40;10.68;;;;;;;40.28;23.63;100623.19;5034485;27;100793;-88
2022/07/20 07:17:23;;;;;;;12.77;11.63;;;;;;;40.55;23.82;100628.16;5027057;27;97218;-87
2022/07/20 07:19:48;;;;;;;14.48;10.88;;;;;;;41.05;22.73;100622.91;5031097;27;96977;-86
2022/07/20 07:22:14;;;;;;;12.60;11.63;;;;;;;41.17;22.51;100620.94;5036658;27;101472;-87
2022/07/20 07:24:39;;;;;;;16.30;10.45;;;;;;;41.59;22.26;100619.75;5038813;27;100955;-87
2022/07/20 07:27:05;;;;;;;17.50;12.02;;;;;;;41.75;22.24;100621.66;5019065;27;98117;-86
2022/07/20 07:29:30;;;;;;;15.18;11.65;;;;;;;42.56;21.33;100618.44;5016458;27;97187;-87
2022/07/20 07:31:58;;;;;;;13.30;11.90;;;;;;;42.46;21.45;100613.63;5033812;27;101638;-87
2022/07/20 07:34:28;;;;;;;12.45;11.20;;;;;;;41.84;21.46;100616.56;5008931;27;101168;-88
2022/07/20 07:36:54;;;;;;;11.20;10.00;;;;;;;41.86;21.64;100608.84;5037532;27;96981;-87
2022/07/20 07:39:19;;;;;;;12.68;10.55;;;;;;;42.44;21.58;100618.53;5037235;27;96848;-88
2022/07/20 07:41:45;;;;;;;17.98;11.10;;;;;;;42.64;20.41;100612.44;5011963;27;100336;-86
2022/07/20 07:44:10;;;;;;;11.68;10.60;;;;;;;41.75;21.14;100607.06;5018821;27;101396;-86
2022/07/20 07:46:36;;;;;;;12.32;11.02;;;;;;;41.84;21.08;100611.06;5021087;27;97867;-88
2022/07/20 07:49:02;;;;;;;12.15;11.10;;;;;;;42.03;21.23;100608.88;5039649;27;96930;-87
2022/07/20 07:51:28;;;;;;;14.45;12.18;;;;;;;42.43;20.73;100607.78;5021355;27;100755;-88
2022/07/20 07:53:53;;;;;;;13.55;11.60;;;;;;;42.02;21.05;100599.78;5023621;27;100109;-87
2022/07/20 07:56:19;;;;;;;12.38;11.13;;;;;;;42.26;20.87;100599.53;5040263;27;96813;-93
2022/07/20 07:58:44;;;;;;;14.52;10.88;;;;;;;42.36;20.48;100599.72;5037194;27;97021;-86
2022/07/20 08:01:10;;;;;;;12.50;11.43;;;;;;;42.75;20.45;100605.16;5021975;27;101264;-88
2022/07/20 08:03:35;;;;;;;11.68;10.68;;;;;;;43.42;19.96;100595.63;5036777;27;101824;-87
2022/07/20 08:06:02;;;;;;;11.35;10.25;;;;;;;43.68;19.05;100593.91;5019630;27;97487;-92
2022/07/20 08:08:28;;;;;;;12.07;10.93;;;;;;;43.72;19.19;100591.44;5036026;27;96851;-92
2022/07/20 08:10:54;;;;;;;14.48;11.48;;;;;;;43.83;19.29;100584.88;5050160;27;102030;-92
2022/07/20 08:13:20;;;;;;;12.55;11.57;;;;;;;43.67;19.76;100595.03;5020941;27;100975;-91
2022/07/20 08:15:45;;;;;;;11.48;10.48;;;;;;;43.89;19.01;100596.81;5044183;27;96851;-89
2022/07/20 08:18:10;;;;;;;11.70;10.80;;;;;;;44.20;18.35;100587.63;5038331;27;96852;-91
2022/07/20 08:20:36;;;;;;;11.55;10.75;;;;;;;44.67;17.57;100592.25;5029305;27;101608;-89
2022/07/20 08:23:02;;;;;;;11.88;10.65;;;;;;;44.59;17.72;100589.16;5047284;27;98161;-90
2022/07/20 08:25:27;;;;;;;11.65;10.60;;;;;;;44.66;18.04;100593.34;5039091;27;97364;-91
2022/07/20 08:27:53;;;;;;;11.57;10.48;;;;;;;44.26;18.41;100588.47;5048843;27;98121;-92
2022/07/20 08:30:19;;;;;;;11.77;10.65;;;;;;;44.99;17.78;100595.94;5014303;27;101695;-92
2022/07/20 08:32:44;;;;;;;11.57;10.68;;;;;;;44.44;17.99;100590.78;5039569;27;100144;-91
2022/07/20 08:35:10;;;;;;;11.90;10.90;;;;;;;45.58;17.49;100587.97;5035078;27;97230;-92
2022/07/20 08:37:39;;;;;;;13.10;10.30;;;;;;;45.37;17.33;100581.59;5037383;27;96739;-93
2022/07/20 08:40:06;;;;;;;11.25;10.35;;;;;;;45.58;16.72;100587.97;5054702;27;98354;-92
2022/07/20 08:42:32;;;;;;;11.05;10.25;;;;;;;45.27;16.79;100583.53;5032754;27;101398;-92
2022/07/20 08:44:57;;;;;;;11.70;10.60;;;;;;;45.16;16.92;100579.94;5074890;27;97239;-92
2022/07/20 08:47:25;;;;;;;13.68;10.77;;;;;;;45.35;16.55;100586.59;5022421;27;97349;-91
2022/07/20 08:49:50;;;;;;;10.80;10.00;;;;;;;45.12;17.16;100581.53;5032738;27;102189;-91
2022/07/20 08:52:17;;;;;;;11.45;10.55;;;;;;;45.76;16.52;100577.41;5017888;27;101453;-91
2022/07/20 08:54:43;;;;;;;11.90;11.00;;;;;;;45.36;17.08;100566.06;5023471;27;96950;-89
2022/07/20 08:57:15;;;;;;;11.23;10.10;;;;;;;45.26;16.27;100588.22;5042458;27;97444;-89
2022/07/20 08:59:41;;;;;;;10.70;9.95;;;;;;;45.30;17.08;100571.91;5031830;27;100968;-92
2022/07/20 09:02:08;;;;;;;11.82;10.77;;;;;;;45.60;17.08;100565.53;5052227;27;100867;-89
2022/07/20 09:04:54;;;;;;;13.73;9.90;;;;;;;45.34;16.53;100575.78;5037612;27;97315;-92
2022/07/20 09:07:44;;;;;;;11.35;10.35;;;;;;;45.35;16.67;100580.19;5033221;27;97005;-92
2022/07/20 09:10:15;;;;;;;12.00;10.25;;;;;;;45.01;16.53;100566.88;5052439;27;98649;-87
2022/07/20 09:13:03;;;;;;;10.90;9.80;;;;;;;44.53;16.85;100559.81;5033698;27;101074;-92
2022/07/20 09:15:34;;;;;;;;;;;;;;;44.32;17.01;100570.78;5047376;27;96907;-91
2022/07/20 09:18:10;;;;;;;10.48;9.75;;;;;;;43.93;17.25;100576.66;5017867;27;98205;-91
2022/07/20 09:20:41;;;;;;;10.52;9.63;;;;;;;43.50;17.79;100564.75;5033025;27;101485;-90
2022/07/20 09:23:11;;;;;;;11.02;8.98;;;;;;;43.50;17.57;100574.97;5048429;27;99720;-91
2022/07/20 09:25:40;;;;;;;9.55;8.95;;;;;;;42.91;17.96;100564.75;5027365;27;96810;-91
2022/07/20 09:28:06;;;;;;;;;;;;;;;42.15;18.71;100573.75;5055978;27;97225;-90
2022/07/20 09:30:31;;;;;;;9.88;9.18;;;;;;;41.93;18.30;100570.97;5014964;27;99911;-90
2022/07/20 09:33:02;;;;;;;10.77;9.85;;;;;;;41.66;18.85;100570.84;5051351;27;99134;-92
2022/07/20 09:35:33;;;;;;;14.00;10.13;;;;;;;41.15;18.85;100562.53;5032498;27;97236;-89
2022/07/20 09:38:04;;;;;;;10.38;9.43;;;;;;;40.78;19.06;100561.25;5034363;27;97968;-89
2022/07/20 09:40:45;;;;;;;10.27;9.48;;;;;;;40.44;19.25;100567.47;5014690;27;99963;-86
2022/07/20 09:43:30;;;;;;;9.88;8.88;;;;;;;40.12;19.14;100564.28;5026251;27;97843;-85
2022/07/20 09:46:15;;;;;;;12.55;9.50;;;;;;;40.03;19.79;100560.25;5054719;27;97222;-89
2022/07/20 09:48:42;;;;;;;9.35;8.48;;;;;;;39.89;19.62;100556.91;5047354;27;98177;-86
2022/07/20 09:51:21;;;;;;;10.15;9.15;;;;;;;39.71;19.50;100537.75;5037312;27;100513;-91
2022/07/20 09:53:50;;;;;;;;;;;;;;;39.23;19.96;100558.00;5055800;27;99291;-88
2022/07/20 09:56:17;;;;;;;9.50;8.80;;;;;;;39.20;20.31;100556.56;5036259;27;97819;-89
2022/07/20 09:58:45;;;;;;;11.65;10.10;;;;;;;39.16;20.23;100555.34;5043704;27;97001;-91
2022/07/20 10:01:14;;;;;;;11.60;9.40;;;;;;;39.28;20.48;100544.41;5020791;27;101688;-87
2022/07/20 10:03:39;;;;;;;10.80;9.70;;;;;;;38.93;20.51;100542.41;5016883;27;100877;-93
2022/07/20 10:06:05;;;;;;;10.32;9.63;;;;;;;38.73;20.70;100526.22;5039353;27;97346;-83
2022/07/20 10:08:31;;;;;;;11.07;9.05;;;;;;;38.81;20.86;100541.50;5020545;27;97497;-83
2022/07/20 10:10:56;;;;;;;10.52;9.40;;;;;;;38.84;21.11;100530.91;5019403;27;101416;-82
2022/07/20 10:13:22;;;;;;;9.82;9.02;;;;;;;38.53;20.47;100522.91;5024148;27;101433;-83
2022/07/20 10:15:54;;;;;;;9.52;8.63;;;;;;;38.34;21.09;100541.25;5032226;27;98309;-82
2022/07/20 10:18:19;;;;;;;10.45;9.55;;;;;;;37.88;21.10;100542.59;5031569;27;97761;-83
2022/07/20 10:20:45;;;;;;;10.60;9.43;;;;;;;37.65;21.58;100546.00;5045977;27;99102;-83
2022/07/20 10:23:13;;;;;;;10.32;9.32;;;;;;;37.63;21.49;100542.63;5036788;27;97445;-81
2022/07/20 10:25:39;;;;;;;8.90;8.18;;;;;;;37.39;21.63;100554.16;5059626;27;97101;-84
2022/07/20 10:28:23;;;;;;;10.43;8.93;;;;;;;37.19;21.92;100545.28;5039240;27;96792;-83
2022/07/20 10:31:08;;;;;;;14.27;8.75;;;;;;;37.17;21.68;100544.66;5066063;27;97896;-83
2022/07/20 10:33:36;;;;;;;9.02;8.40;;;;;;;37.07;21.51;100545.16;5022276;27;100944;-83
2022/07/20 10:39:38;;;;;;;9.27;8.35;;;;;;;36.52;21.98;100539.34;5038289;27;97157;-83
2022/07/20 10:42:28;;;;;;;10.10;8.88;;;;;;;36.40;21.98;100543.78;5065929;27;101295;-91
2022/07/20 10:44:54;;;;;;;;;;;;;;;36.32;22.11;100533.91;5037360;27;101602;-91
2022/07/20 10:47:39;;;;;;;10.35;9.18;;;;;;;36.13;22.23;100523.91;5019004;27;96983;-90
2022/07/20 10:50:05;;;;;;;11.88;9.02;;;;;;;36.09;22.17;100528.94;5033458;27;97118;-89
2022/07/20 10:52:33;;;;;;;12.90;9.10;;;;;;;36.22;21.77;100528.94;5021050;27;102095;-91
2022/07/20 10:54:59;;;;;;;10.07;9.38;;;;;;;36.03;22.48;100527.88;5025400;27;101462;-91
2022/07/20 10:57:25;;;;;;;9.52;8.60;;;;;;;35.91;22.43;100521.41;5050908;27;96707;-90
2022/07/20 11:00:03;;;;;;;10.38;9.10;;;;;;;35.99;21.81;100529.38;5044328;27;96758;-89
2022/07/20 11:02:32;;;;;;;9.50;8.63;;;;;;;35.89;22.44;100528.97;5032558;27;100464;-90
2022/07/20 11:04:58;;;;;;;10.13;9.20;;;;;;;35.84;22.38;100526.06;5029696;27;101747;-90
2022/07/20 11:07:34;;;;;;;10.25;9.27;;;;;;;35.75;24.20;100525.44;5023915;27;97179;-90
2022/07/20 11:10:01;;;;;;;10.32;9.32;;;;;;;35.83;22.86;100522.47;5016074;27;96830;-91
2022/07/20 11:12:28;;;;;;;10.57;9.43;;;;;;;35.76;22.40;100512.63;5041184;27;97781;-89
2022/07/20 11:14:55;;;;;;;14.00;9.10;;;;;;;35.68;22.34;100534.69;5026386;27;101252;-90
2022/07/20 11:17:21;;;;;;;10.55;9.52;;;;;;;35.47;22.75;100514.72;5014509;27;96927;-93
2022/07/20 11:19:47;;;;;;;10.15;9.13;;;;;;;35.60;22.32;100517.47;5044602;27;97678;-91